Latest Weather Observations for Melbourne Airport

IDV60801

Issued at 4:32 pm EST Wednesday 28 September 2016 (issued every 30 minutes, with the page automatically refreshed every 10 minutes)

About weather observations | Map of weather stations | Latest weather observations for VIC | Other Formats
Station Details ID: 086282 Name: MELBOURNE AIRPORT Lat: -37.67 Lon: 144.83 Height: 113.4 m
Data from the previous 72 hours. | See also: Recent months at Melbourne Airport
Date/Time
EST
Temp
°C
App
Temp
°C
Dew
Point
°C
Rel
Hum
%
Delta-T
°C
Wind Press
QNH
hPa
Press
MSL
hPa
Rain since
9am
mm
Dir  Spd
km/h
Gust
km/h
Spd
kts
Gust
kts
28/04:00pm 15.6 8.1 6.2 53 4.6 N 35 44 19 24 1003.2 1003.2 0.2
28/03:30pm 16.4 9.1 7.0 53 4.7 N 35 44 19 24 1003.3 1003.3 0.2
28/03:00pm 16.6 9.6 6.8 52 4.9 N 33 48 18 26 1003.8 1003.8 0.2
28/02:30pm 16.6 8.0 6.3 50 5.1 N 41 56 22 30 1004.5 1004.5 0.2
28/02:26pm 16.6 8.7 6.3 50 5.1 NNE 37 56 20 30 1004.6 1004.6 0.2
28/02:00pm 17.0 8.0 6.3 49 5.3 NNE 43 59 23 32 1005.2 1005.2 0.2
28/01:56pm 16.8 8.2 6.3 50 5.2 NNE 41 59 22 32 1005.3 1005.3 0.2
28/01:30pm 17.0 9.3 7.0 51 5.0 NNE 37 52 20 28 1006.6 1006.7 0.0
28/01:15pm 16.6 9.8 7.5 55 4.6 NNE 33 46 18 25 1006.6 1006.7 0.0
28/01:00pm 16.7 8.5 6.6 51 5.0 N 39 50 21 27 1007.2 1007.3 0.0
28/12:30pm 16.2 8.8 6.7 53 4.7 NNE 35 48 19 26 1008.3 1008.4 0.0
28/12:00pm 15.8 8.9 7.4 57 4.2 NNE 33 41 18 22 1009.3 1009.3 0.0
28/11:30am 15.7 8.9 7.5 58 4.1 N 33 46 18 25 1010.3 1010.3 0.0
28/11:00am 15.2 7.7 8.1 62 3.6 N 37 44 20 24 1010.9 1010.9 0.0
28/10:30am 14.4 7.7 8.0 65 3.2 N 33 43 18 23 1011.4 1011.4 0.0
28/10:00am 13.8 7.1 8.0 68 2.9 N 33 41 18 22 1012.0 1012.0 0.0
28/09:30am 13.0 6.4 7.7 70 2.6 N 32 37 17 20 1012.0 1012.0 0.0
28/09:00am 12.5 6.4 6.7 68 2.8 N 28 37 15 20 1012.3 1012.3 1.6
28/08:30am 11.6 5.9 6.6 71 2.4 N 26 32 14 17 1012.5 1012.5 1.6
28/08:00am 10.8 5.8 6.6 75 2.0 N 22 32 12 17 1012.8 1012.8 1.6
28/07:30am 10.3 5.8 6.9 79 1.6 N 20 26 11 14 1012.8 1012.8 1.6
28/07:00am 8.9 3.6 6.8 87 1.0 N 24 28 13 15 1012.9 1012.9 1.6
28/06:30am 8.3 2.6 6.8 90 0.7 N 26 32 14 17 1012.9 1012.9 1.6
28/06:00am 7.5 2.5 6.4 93 0.5 N 22 26 12 14 1012.7 1012.7 1.6
28/05:30am 7.2 1.8 6.3 94 0.4 N 24 28 13 15 1012.5 1012.5 1.6
28/05:00am 7.4 2.3 6.1 91 0.6 N 22 28 12 15 1012.5 1012.5 1.6
28/04:30am 7.7 2.9 5.5 86 1.0 N 20 26 11 14 1012.4 1012.4 1.6
28/04:00am 7.3 1.9 4.3 81 1.3 N 22 26 12 14 1012.5 1012.5 1.6
28/03:30am 7.3 1.9 4.3 81 1.3 N 22 26 12 14 1012.5 1012.5 1.6
28/03:00am 7.8 3.2 3.9 76 1.7 NNW 17 20 9 11 1012.6 1012.6 1.6
28/02:30am 8.4 2.7 4.8 78 1.6 N 24 30 13 16 1012.4 1012.4 1.6
28/02:00am 8.1 2.5 5.2 82 1.3 N 24 26 13 14 1012.4 1012.4 1.6
28/01:30am 8.0 1.9 4.6 79 1.5 N 26 30 14 16 1012.5 1012.5 1.6
28/01:00am 8.5 2.8 4.7 77 1.7 N 24 28 13 15 1012.7 1012.7 1.6
28/12:30am 8.8 3.4 4.3 73 2.0 N 22 26 12 14 1012.8 1012.8 1.6
28/12:00am 9.1 4.2 4.1 71 2.2 N 19 22 10 12 1012.8 1012.8 1.6
 
Date/Time
EST
Temp
°C
App
Temp
°C
Dew
Point
°C
Rel
Hum
%
Delta-T
°C
Wind Press
QNH
hPa
Press
MSL
hPa
Rain since
9am
mm
Dir  Spd
km/h
Gust
km/h
Spd
kts
Gust
kts
27/11:30pm 8.7 3.4 4.9 77 1.7 N 22 26 12 14 1012.8 1012.8 1.6
27/11:00pm 9.3 4.4 5.1 75 1.9 N 20 26 11 14 1012.9 1012.9 1.6
27/10:30pm 8.4 3.5 5.1 80 1.5 N 20 26 11 14 1013.2 1013.2 1.6
27/10:00pm 9.3 4.5 4.6 72 2.1 N 19 22 10 12 1013.2 1013.2 1.6
27/09:30pm 8.8 4.6 5.5 80 1.5 N 17 20 9 11 1013.3 1013.3 1.6
27/09:00pm 8.5 4.7 5.9 84 1.2 N 15 17 8 9 1013.6 1013.6 1.6
27/08:30pm 9.9 7.1 5.3 73 2.1 N 9 13 5 7 1013.5 1013.5 1.6
27/08:00pm 10.3 9.3 5.5 72 2.2 CALM 0 0 0 0 1013.4 1013.4 1.6
27/07:30pm 11.4 9.4 4.3 61 3.2 W 4 7 2 4 1013.3 1013.3 1.6
27/07:00pm 10.8 7.9 4.9 67 2.7 WSW 9 9 5 5 1013.3 1013.3 1.6
27/06:30pm 11.7 9.1 6.0 68 2.7 SW 9 11 5 6 1013.1 1013.1 1.6
27/06:00pm 13.0 9.8 5.3 59 3.6 WSW 11 15 6 8 1012.9 1012.9 1.6
27/05:30pm 13.3 9.4 5.2 58 3.8 WSW 15 19 8 10 1012.7 1012.7 1.6
27/05:00pm 14.2 11.2 5.8 57 4.0 WSW 11 19 6 10 1012.4 1012.4 1.6
27/04:30pm 14.4 9.6 4.5 51 4.6 WSW 19 26 10 14 1012.2 1012.2 1.6
27/04:00pm 13.9 8.7 5.7 57 3.9 WSW 22 30 12 16 1012.0 1012.0 1.6
27/03:30pm 14.2 9.1 7.6 64 3.3 SW 24 33 13 18 1011.8 1011.8 1.6
27/03:00pm 14.8 9.1 6.9 59 3.9 SW 26 37 14 20 1011.8 1011.8 1.6
27/02:30pm 12.9 8.8 8.5 74 2.2 SW 20 28 11 15 1011.9 1011.9 1.6
27/02:00pm 12.3 8.0 9.4 82 1.5 SW 22 32 12 17 1012.0 1012.0 1.6
27/01:30pm 11.2 6.3 9.8 91 0.7 WSW 26 41 14 22 1012.2 1012.2 1.2
27/01:21pm 11.8 6.9 9.8 87 1.0 WSW 26 41 14 22 1012.2 1012.2 0.6
27/01:00pm 13.1 8.9 9.6 79 1.8 SW 22 33 12 18 1012.0 1012.0 0.2
27/12:43pm 12.1 8.3 9.8 86 1.2 WSW 20 28 11 15 1012.2 1012.2 0.2
27/12:30pm 11.8 7.8 10.3 90 0.8 WSW 22 32 12 17 1012.3 1012.3 0.2
27/12:14pm 11.7 5.5 9.3 85 1.2 W 32 41 17 22 1012.1 1012.1 0.0
27/12:00pm 13.4 8.4 8.0 70 2.7 W 24 32 13 17 1012.0 1012.0 0.0
27/11:30am 13.4 10.3 7.1 65 3.1 WSW 13 19 7 10 1011.8 1011.8 0.0
27/11:00am 13.2 8.4 5.6 60 3.6 WSW 20 32 11 17 1011.9 1011.9 0.0
27/10:30am 12.9 8.3 6.4 64 3.1 W 20 26 11 14 1012.1 1012.1 0.0
27/10:00am 12.3 7.6 6.2 66 2.9 W 20 28 11 15 1012.1 1012.1 0.0
27/09:30am 11.2 5.7 6.1 71 2.4 W 24 32 13 17 1012.0 1012.0 0.0
27/09:00am 11.1 6.0 6.2 72 2.3 W 22 28 12 15 1011.8 1011.8 8.6
27/08:30am 10.2 5.3 5.2 71 2.3 W 20 26 11 14 1011.7 1011.7 8.6
27/08:00am 9.5 5.9 4.8 72 2.1 WNW 13 19 7 10 1011.4 1011.4 8.6
27/07:30am 8.0 3.9 4.1 76 1.7 N 15 20 8 11 1011.2 1011.2 8.6
27/07:00am 6.4 2.6 3.8 83 1.1 N 13 17 7 9 1010.9 1010.9 8.6
27/06:30am 5.4 1.1 3.2 86 0.9 NNW 15 17 8 9 1010.7 1010.7 8.6
27/06:00am 5.1 0.8 3.2 87 0.8 NNW 15 17 8 9 1010.3 1010.3 8.6
27/05:30am 4.8 0.5 3.1 89 0.7 NNW 15 17 8 9 1010.1 1010.1 8.6
27/05:00am 4.7 0.8 3.3 91 0.6 N 13 15 7 8 1010.0 1010.0 8.6
27/04:30am 5.4 2.3 3.5 87 0.8 NW 9 13 5 7 1009.8 1009.8 8.6
27/04:00am 5.7 1.9 4.1 89 0.7 NNW 13 15 7 8 1009.7 1009.7 8.6
27/03:30am 5.9 2.6 4.3 89 0.7 NW 11 13 6 7 1009.6 1009.6 8.6
27/03:00am 6.6 3.9 5.5 93 0.5 NW 9 11 5 6 1009.5 1009.5 8.6
27/02:30am 7.5 4.0 5.5 87 0.9 W 13 22 7 12 1009.5 1009.5 8.6
27/02:00am 7.6 4.8 5.1 84 1.1 WNW 9 19 5 10 1009.8 1009.8 8.4
27/01:30am 7.8 5.5 5.6 86 1.0 NW 7 11 4 6 1009.8 1009.8 8.4
27/01:00am 7.2 3.7 5.4 88 0.8 NW 13 15 7 8 1009.8 1009.8 8.4
27/12:30am 7.5 3.6 5.5 87 0.9 N 15 19 8 10 1009.9 1009.9 8.4
27/12:00am 7.4 3.5 5.2 86 1.0 NNW 15 19 8 10 1010.0 1010.0 8.4
 
Date/Time
EST
Temp
°C
App
Temp
°C
Dew
Point
°C
Rel
Hum
%
Delta-T
°C
Wind Press
QNH
hPa
Press
MSL
hPa
Rain since
9am
mm
Dir  Spd
km/h
Gust
km/h
Spd
kts
Gust
kts
26/11:30pm 7.4 3.5 5.2 86 1.0 NNW 15 17 8 9 1010.2 1010.2 8.4
26/11:00pm 7.8 4.1 4.6 80 1.4 NNW 13 17 7 9 1010.0 1010.0 8.4
26/10:30pm 7.9 5.0 6.4 90 0.7 NNE 11 17 6 9 1010.0 1010.0 8.4
26/10:00pm 7.7 5.3 6.8 94 0.4 NNE 9 15 5 8 1010.7 1010.7 8.0
26/09:30pm 7.5 4.2 6.6 94 0.4 W 13 19 7 10 1011.4 1011.4 7.2
26/09:00pm 7.5 1.4 6.4 93 0.5 SW 28 39 15 21 1011.0 1011.0 5.0
26/08:46pm 7.8 0.9 6.5 91 0.6 SW 32 43 17 23 1011.0 1011.0 3.8
26/08:38pm 8.6 4.2 6.7 88 0.9 SW 19 39 10 21 1011.0 1011.0 3.0
26/08:30pm 9.8 7.4 8.8 93 0.5 NW 11 15 6 8 1010.5 1010.5 3.0
26/08:00pm 9.7 7.7 8.7 93 0.5 NNE 9 13 5 7 1009.4 1009.4 2.8
26/07:30pm 10.4 7.9 8.2 86 1.1 NNE 11 17 6 9 1009.5 1009.5 2.8
26/07:00pm 10.5 7.3 8.3 86 1.1 NW 15 20 8 11 1010.1 1010.1 2.4
26/06:30pm 10.6 7.3 8.2 85 1.2 WNW 15 20 8 11 1009.8 1009.8 1.8
26/06:00pm 12.6 9.0 6.6 67 2.9 NW 15 24 8 13 1009.5 1009.5 0.2
26/05:30pm 14.3 10.8 5.5 55 4.2 N 13 15 7 8 1008.8 1008.9 0.2
26/05:00pm 14.7 10.6 4.2 49 4.9 N 15 22 8 12 1008.6 1008.7 0.2
26/04:30pm 15.0 10.0 3.4 45 5.3 NW 19 28 10 15 1008.6 1008.7 0.2
26/04:00pm 15.0 11.0 4.8 50 4.8 NNE 15 19 8 10 1008.9 1009.0 0.2
26/03:30pm 15.0 9.5 4.0 47 5.1 N 22 33 12 18 1009.1 1009.2 0.2
26/03:00pm 16.3 10.9 2.7 40 6.2 NNW 20 30 11 16 1009.5 1009.5 0.2
26/02:33pm 14.4 7.7 3.7 48 4.9 NW 28 46 15 25 1009.8 1009.8 0.2
26/02:30pm 14.4 7.5 4.6 51 4.6 NW 30 46 16 25 1009.8 1009.8 0.2
26/02:24pm 14.5 8.2 3.9 49 4.9 NW 26 46 14 25 1009.8 1009.8 0.2
26/02:00pm 15.8 11.2 3.5 43 5.7 NW 17 24 9 13 1009.8 1009.8 0.2
26/01:30pm 15.4 12.2 3.2 44 5.6 W 9 11 5 6 1010.0 1010.0 0.2
26/01:00pm 15.4 13.9 3.1 43 5.6 CALM 0 9 0 5 1010.4 1010.4 0.2
26/12:30pm 14.6 11.5 3.7 48 5.0 NW 9 13 5 7 1010.9 1010.9 0.2
26/12:00pm 14.4 11.5 4.8 52 4.5 WSW 9 15 5 8 1011.4 1011.4 0.2
26/11:30am 14.4 11.4 4.3 50 4.7 N 9 15 5 8 1011.7 1011.7 0.0
26/11:00am 14.7 12.2 4.7 51 4.7 NNW 7 13 4 7 1012.0 1012.0 0.0
26/10:30am 13.6 10.9 5.6 58 3.8 W 9 13 5 7 1012.4 1012.4 0.0
26/10:00am 12.5 8.7 3.9 56 3.9 W 13 17 7 9 1012.7 1012.7 0.0
26/09:30am 14.1 10.5 4.9 54 4.3 NW 13 20 7 11 1012.9 1012.9 0.0
26/09:00am 13.2 9.8 6.1 62 3.4 NW 13 17 7 9 1013.0 1013.0 0.0
26/08:30am 11.9 7.8 6.2 68 2.7 N 17 20 9 11 1013.0 1013.0 0.0
26/08:00am 10.8 6.5 6.8 76 1.9 N 19 24 10 13 1013.0 1013.0 0.0
26/07:30am 9.6 5.4 5.9 78 1.7 N 17 22 9 12 1013.3 1013.3 0.0
26/07:00am 8.9 5.2 6.5 85 1.1 N 15 17 8 9 1013.2 1013.2 0.0
26/06:30am 8.0 4.3 6.5 90 0.7 N 15 17 8 9 1013.2 1013.2 0.0
26/06:00am 7.5 4.6 6.6 94 0.4 N 11 13 6 7 1013.0 1013.0 0.0
26/05:30am 7.5 4.7 6.9 96 0.3 NNE 11 13 6 7 1012.9 1012.9 0.0
26/05:00am 8.5 6.1 7.0 90 0.7 WNW 9 9 5 5 1013.0 1013.0 0.0
26/04:30am 8.4 7.7 7.1 91 0.6 CALM 0 0 0 0 1013.0 1013.0 0.0
26/04:00am 8.0 6.9 6.9 93 0.5 SSW 2 9 1 5 1013.0 1013.0 0.0
26/03:30am 8.4 6.5 6.5 88 0.9 NNW 6 13 3 7 1012.8 1012.8 0.0
26/03:00am 8.1 6.1 6.4 89 0.8 W 6 9 3 5 1012.9 1012.9 0.0
26/02:30am 8.0 5.1 6.3 89 0.8 N 11 13 6 7 1012.9 1012.9 0.0
26/02:00am 7.9 3.8 6.2 89 0.8 N 17 19 9 10 1013.2 1013.2 0.0
26/01:30am 8.0 5.0 6.0 87 0.9 N 11 13 6 7 1013.5 1013.5 0.0
26/01:00am 8.2 4.8 5.8 85 1.1 N 13 15 7 8 1013.7 1013.8 0.0
26/12:30am 8.1 5.5 5.9 86 1.0 N 9 15 5 8 1013.8 1013.9 0.0
26/12:00am 7.8 5.1 5.8 87 0.9 N 9 11 5 6 1014.0 1014.1 0.0
 
Date/Time
EST
Temp
°C
App
Temp
°C
Dew
Point
°C
Rel
Hum
%
Delta-T
°C
Wind Press
QNH
hPa
Press
MSL
hPa
Rain since
9am
mm
Dir  Spd
km/h
Gust
km/h
Spd
kts
Gust
kts
25/11:30pm 7.7 4.1 5.2 84 1.1 N 13 15 7 8 1014.0 1014.1 0.0
25/11:00pm 7.3 4.2 5.7 89 0.7 N 11 13 6 7 1014.4 1014.5 0.0
25/10:30pm 7.9 5.6 5.9 87 0.9 NNW 7 7 4 4 1014.6 1014.7 0.0
25/10:00pm 8.4 6.3 6.5 88 0.9 NNW 7 9 4 5 1014.8 1014.9 0.0
25/09:30pm 8.1 5.5 5.9 86 1.0 N 9 11 5 6 1014.6 1014.7 0.0
25/09:00pm 8.9 7.2 5.8 81 1.4 W 4 6 2 3 1014.6 1014.7 0.0
25/08:30pm 9.4 7.3 5.9 79 1.6 WSW 6 7 3 4 1014.4 1014.5 0.0
25/08:00pm 8.7 6.5 5.4 80 1.5 SW 6 7 3 4 1014.3 1014.4 0.0
25/07:30pm 8.8 6.5 5.5 80 1.5 SSW 7 9 4 5 1013.9 1014.0 0.0
25/07:00pm 9.4 6.6 5.2 75 1.9 S 9 11 5 6 1013.3 1013.3 0.0
25/06:30pm 9.6 6.0 5.2 74 2.0 SSE 13 15 7 8 1012.8 1012.8 0.0
25/06:00pm 10.4 5.9 4.4 66 2.7 SSE 17 19 9 10 1012.3 1012.3 0.0
25/05:30pm 11.6 6.7 5.1 64 3.0 SSE 20 26 11 14 1012.2 1012.2 0.0
25/05:00pm 11.6 9.6 6.1 69 2.6 S 6 11 3 6 1011.9 1011.9 0.0

Other Formats:

Comma delimited format used in spreadsheet applications
http://www.bom.gov.au/fwo/IDV60801/IDV60801.94866.axf

JavaScript Object Notation format (JSON) in row-major order
http://www.bom.gov.au/fwo/IDV60801/IDV60801.94866.json